sensor_id;sensor_type;location;lat;lon;timestamp;P1;durP1;ratioP1;P2;durP2;ratioP2
5054;SDS011;13829;48.990;8.346;2023-08-08T00:01:37;4.17;;;2.10;;
5054;SDS011;13829;48.990;8.346;2023-08-08T00:04:07;2.60;;;1.83;;
5054;SDS011;13829;48.990;8.346;2023-08-08T00:06:35;4.77;;;1.70;;
5054;SDS011;13829;48.990;8.346;2023-08-08T00:09:02;2.90;;;1.67;;
5054;SDS011;13829;48.990;8.346;2023-08-08T00:11:29;3.60;;;2.10;;
5054;SDS011;13829;48.990;8.346;2023-08-08T00:13:57;2.37;;;2.10;;
5054;SDS011;13829;48.990;8.346;2023-08-08T00:16:24;2.80;;;2.20;;
5054;SDS011;13829;48.990;8.346;2023-08-08T00:18:52;3.90;;;2.13;;
5054;SDS011;13829;48.990;8.346;2023-08-08T00:21:19;2.77;;;1.93;;
5054;SDS011;13829;48.990;8.346;2023-08-08T00:23:46;2.00;;;1.80;;
5054;SDS011;13829;48.990;8.346;2023-08-08T00:26:13;3.77;;;2.00;;
5054;SDS011;13829;48.990;8.346;2023-08-08T00:28:40;2.83;;;2.00;;
5054;SDS011;13829;48.990;8.346;2023-08-08T00:31:07;3.87;;;1.50;;
5054;SDS011;13829;48.990;8.346;2023-08-08T00:33:34;2.63;;;1.80;;
5054;SDS011;13829;48.990;8.346;2023-08-08T00:36:02;1.93;;;1.70;;
5054;SDS011;13829;48.990;8.346;2023-08-08T00:38:29;3.13;;;2.10;;
5054;SDS011;13829;48.990;8.346;2023-08-08T00:40:56;2.87;;;2.07;;
5054;SDS011;13829;48.990;8.346;2023-08-08T00:43:23;2.73;;;1.87;;
5054;SDS011;13829;48.990;8.346;2023-08-08T00:45:50;1.90;;;1.63;;
5054;SDS011;13829;48.990;8.346;2023-08-08T00:48:17;3.27;;;2.13;;
5054;SDS011;13829;48.990;8.346;2023-08-08T00:50:45;1.80;;;1.70;;
5054;SDS011;13829;48.990;8.346;2023-08-08T00:53:17;3.67;;;1.83;;
5054;SDS011;13829;48.990;8.346;2023-08-08T00:55:45;2.10;;;1.53;;
5054;SDS011;13829;48.990;8.346;2023-08-08T00:58:12;2.50;;;1.53;;
5054;SDS011;13829;48.990;8.346;2023-08-08T01:00:42;2.30;;;1.50;;
5054;SDS011;13829;48.990;8.346;2023-08-08T01:03:09;2.40;;;2.00;;
5054;SDS011;13829;48.990;8.346;2023-08-08T01:05:38;2.20;;;1.83;;
5054;SDS011;13829;48.990;8.346;2023-08-08T01:08:15;1.87;;;1.67;;
5054;SDS011;13829;48.990;8.346;2023-08-08T01:10:53;2.30;;;1.70;;
5054;SDS011;13829;48.990;8.346;2023-08-08T01:13:21;2.13;;;1.77;;
5054;SDS011;13829;48.990;8.346;2023-08-08T01:15:54;1.57;;;1.37;;
5054;SDS011;13829;48.990;8.346;2023-08-08T01:18:24;2.53;;;1.60;;
5054;SDS011;13829;48.990;8.346;2023-08-08T01:20:53;1.93;;;1.50;;
5054;SDS011;13829;48.990;8.346;2023-08-08T01:23:26;1.90;;;1.70;;
5054;SDS011;13829;48.990;8.346;2023-08-08T01:26:07;2.73;;;1.67;;
5054;SDS011;13829;48.990;8.346;2023-08-08T01:28:34;2.60;;;1.90;;
5054;SDS011;13829;48.990;8.346;2023-08-08T01:31:03;2.80;;;1.97;;
5054;SDS011;13829;48.990;8.346;2023-08-08T01:33:29;2.53;;;1.90;;
5054;SDS011;13829;48.990;8.346;2023-08-08T01:35:58;2.03;;;1.80;;
5054;SDS011;13829;48.990;8.346;2023-08-08T01:38:34;3.10;;;1.80;;
5054;SDS011;13829;48.990;8.346;2023-08-08T01:41:08;2.50;;;1.77;;
5054;SDS011;13829;48.990;8.346;2023-08-08T01:43:36;2.00;;;1.60;;
5054;SDS011;13829;48.990;8.346;2023-08-08T01:46:04;3.10;;;1.90;;
5054;SDS011;13829;48.990;8.346;2023-08-08T01:48:33;2.57;;;1.83;;
5054;SDS011;13829;48.990;8.346;2023-08-08T01:51:00;4.00;;;1.90;;
5054;SDS011;13829;48.990;8.346;2023-08-08T01:53:26;4.17;;;2.17;;
5054;SDS011;13829;48.990;8.346;2023-08-08T01:55:53;3.47;;;1.73;;
5054;SDS011;13829;48.990;8.346;2023-08-08T01:58:22;4.63;;;2.13;;
5054;SDS011;13829;48.990;8.346;2023-08-08T02:00:49;2.77;;;1.60;;
5054;SDS011;13829;48.990;8.346;2023-08-08T02:03:16;3.30;;;2.10;;
5054;SDS011;13829;48.990;8.346;2023-08-08T02:05:43;4.90;;;2.10;;
5054;SDS011;13829;48.990;8.346;2023-08-08T02:08:10;4.10;;;2.00;;
5054;SDS011;13829;48.990;8.346;2023-08-08T02:10:37;5.17;;;2.13;;
5054;SDS011;13829;48.990;8.346;2023-08-08T02:13:04;2.10;;;1.80;;
5054;SDS011;13829;48.990;8.346;2023-08-08T02:15:33;3.83;;;2.00;;
5054;SDS011;13829;48.990;8.346;2023-08-08T02:18:00;3.43;;;2.00;;
5054;SDS011;13829;48.990;8.346;2023-08-08T02:20:28;3.33;;;2.00;;
5054;SDS011;13829;48.990;8.346;2023-08-08T02:22:55;2.10;;;1.80;;
5054;SDS011;13829;48.990;8.346;2023-08-08T02:25:22;2.33;;;1.80;;
5054;SDS011;13829;48.990;8.346;2023-08-08T02:27:49;2.30;;;1.60;;
5054;SDS011;13829;48.990;8.346;2023-08-08T02:30:16;2.17;;;1.87;;
5054;SDS011;13829;48.990;8.346;2023-08-08T02:32:45;2.17;;;1.80;;
5054;SDS011;13829;48.990;8.346;2023-08-08T02:35:12;2.77;;;2.20;;
5054;SDS011;13829;48.990;8.346;2023-08-08T02:37:39;2.70;;;2.10;;
5054;SDS011;13829;48.990;8.346;2023-08-08T02:40:06;2.97;;;2.00;;
5054;SDS011;13829;48.990;8.346;2023-08-08T02:42:34;2.57;;;1.87;;
5054;SDS011;13829;48.990;8.346;2023-08-08T02:45:02;3.53;;;2.17;;
5054;SDS011;13829;48.990;8.346;2023-08-08T02:47:29;2.43;;;2.00;;
5054;SDS011;13829;48.990;8.346;2023-08-08T02:49:58;2.40;;;2.00;;
5054;SDS011;13829;48.990;8.346;2023-08-08T02:52:25;2.70;;;1.67;;
5054;SDS011;13829;48.990;8.346;2023-08-08T02:54:51;3.17;;;2.23;;
5054;SDS011;13829;48.990;8.346;2023-08-08T02:57:18;4.07;;;2.10;;
5054;SDS011;13829;48.990;8.346;2023-08-08T02:59:45;2.83;;;2.10;;
5054;SDS011;13829;48.990;8.346;2023-08-08T03:02:12;3.67;;;2.23;;
5054;SDS011;13829;48.990;8.346;2023-08-08T03:04:39;3.17;;;2.30;;
5054;SDS011;13829;48.990;8.346;2023-08-08T03:07:07;2.20;;;2.00;;
5054;SDS011;13829;48.990;8.346;2023-08-08T03:09:34;3.00;;;2.17;;
5054;SDS011;13829;48.990;8.346;2023-08-08T03:12:01;2.03;;;1.80;;
5054;SDS011;13829;48.990;8.346;2023-08-08T03:14:29;2.83;;;2.17;;
5054;SDS011;13829;48.990;8.346;2023-08-08T03:16:56;2.77;;;2.07;;
5054;SDS011;13829;48.990;8.346;2023-08-08T03:19:23;4.43;;;2.03;;
5054;SDS011;13829;48.990;8.346;2023-08-08T03:21:50;3.53;;;1.93;;
5054;SDS011;13829;48.990;8.346;2023-08-08T03:24:18;3.40;;;1.93;;
5054;SDS011;13829;48.990;8.346;2023-08-08T03:26:45;5.00;;;2.10;;
5054;SDS011;13829;48.990;8.346;2023-08-08T03:29:12;2.80;;;1.83;;
5054;SDS011;13829;48.990;8.346;2023-08-08T03:31:39;3.20;;;2.07;;
5054;SDS011;13829;48.990;8.346;2023-08-08T03:34:06;2.93;;;2.00;;
5054;SDS011;13829;48.990;8.346;2023-08-08T03:36:33;4.27;;;2.20;;
5054;SDS011;13829;48.990;8.346;2023-08-08T03:39:00;2.40;;;2.10;;
5054;SDS011;13829;48.990;8.346;2023-08-08T03:41:29;1.83;;;1.73;;
5054;SDS011;13829;48.990;8.346;2023-08-08T03:43:56;2.20;;;1.80;;
5054;SDS011;13829;48.990;8.346;2023-08-08T03:46:23;2.83;;;1.80;;
5054;SDS011;13829;48.990;8.346;2023-08-08T03:48:50;2.53;;;1.70;;
5054;SDS011;13829;48.990;8.346;2023-08-08T03:51:17;1.70;;;1.60;;
5054;SDS011;13829;48.990;8.346;2023-08-08T03:53:44;4.27;;;2.10;;
5054;SDS011;13829;48.990;8.346;2023-08-08T03:56:11;2.60;;;2.07;;
5054;SDS011;13829;48.990;8.346;2023-08-08T03:58:39;5.03;;;2.20;;
5054;SDS011;13829;48.990;8.346;2023-08-08T04:01:06;5.53;;;2.03;;
5054;SDS011;13829;48.990;8.346;2023-08-08T04:03:33;2.30;;;2.03;;
5054;SDS011;13829;48.990;8.346;2023-08-08T04:06:01;3.07;;;2.20;;
5054;SDS011;13829;48.990;8.346;2023-08-08T04:08:28;2.40;;;1.90;;
5054;SDS011;13829;48.990;8.346;2023-08-08T04:10:55;4.60;;;1.97;;
5054;SDS011;13829;48.990;8.346;2023-08-08T04:13:22;2.40;;;1.80;;
5054;SDS011;13829;48.990;8.346;2023-08-08T04:15:50;4.43;;;2.20;;
5054;SDS011;13829;48.990;8.346;2023-08-08T04:18:17;2.53;;;2.10;;
5054;SDS011;13829;48.990;8.346;2023-08-08T04:20:45;2.53;;;2.00;;
5054;SDS011;13829;48.990;8.346;2023-08-08T04:23:13;3.20;;;2.27;;
5054;SDS011;13829;48.990;8.346;2023-08-08T04:25:39;4.20;;;1.87;;
5054;SDS011;13829;48.990;8.346;2023-08-08T04:28:06;2.73;;;1.70;;
5054;SDS011;13829;48.990;8.346;2023-08-08T04:30:33;3.70;;;1.90;;
5054;SDS011;13829;48.990;8.346;2023-08-08T04:33:02;4.00;;;2.40;;
5054;SDS011;13829;48.990;8.346;2023-08-08T04:35:30;2.33;;;2.13;;
5054;SDS011;13829;48.990;8.346;2023-08-08T04:37:56;3.93;;;2.10;;
5054;SDS011;13829;48.990;8.346;2023-08-08T04:40:23;3.50;;;1.97;;
5054;SDS011;13829;48.990;8.346;2023-08-08T04:42:50;4.27;;;2.33;;
5054;SDS011;13829;48.990;8.346;2023-08-08T04:45:18;2.93;;;2.03;;
5054;SDS011;13829;48.990;8.346;2023-08-08T04:47:46;3.43;;;2.03;;
5054;SDS011;13829;48.990;8.346;2023-08-08T04:50:14;3.00;;;2.13;;
5054;SDS011;13829;48.990;8.346;2023-08-08T04:52:41;2.67;;;1.90;;
5054;SDS011;13829;48.990;8.346;2023-08-08T04:55:08;2.97;;;2.43;;
5054;SDS011;13829;48.990;8.346;2023-08-08T04:57:36;4.03;;;2.30;;
5054;SDS011;13829;48.990;8.346;2023-08-08T05:00:03;2.70;;;2.00;;
5054;SDS011;13829;48.990;8.346;2023-08-08T05:02:33;3.00;;;1.80;;
5054;SDS011;13829;48.990;8.346;2023-08-08T05:05:01;6.40;;;2.40;;
5054;SDS011;13829;48.990;8.346;2023-08-08T05:07:29;1.87;;;1.73;;
5054;SDS011;13829;48.990;8.346;2023-08-08T05:09:56;4.83;;;2.00;;
5054;SDS011;13829;48.990;8.346;2023-08-08T05:12:23;4.37;;;2.20;;
5054;SDS011;13829;48.990;8.346;2023-08-08T05:14:50;3.17;;;2.10;;
5054;SDS011;13829;48.990;8.346;2023-08-08T05:17:17;3.90;;;1.90;;
5054;SDS011;13829;48.990;8.346;2023-08-08T05:19:44;2.43;;;1.67;;
5054;SDS011;13829;48.990;8.346;2023-08-08T05:22:11;4.60;;;2.00;;
5054;SDS011;13829;48.990;8.346;2023-08-08T05:24:39;3.07;;;2.00;;
5054;SDS011;13829;48.990;8.346;2023-08-08T05:27:06;6.03;;;2.20;;
5054;SDS011;13829;48.990;8.346;2023-08-08T05:29:33;2.37;;;1.80;;
5054;SDS011;13829;48.990;8.346;2023-08-08T05:32:03;3.33;;;2.00;;
5054;SDS011;13829;48.990;8.346;2023-08-08T05:34:31;2.00;;;1.80;;
5054;SDS011;13829;48.990;8.346;2023-08-08T05:36:58;2.83;;;1.87;;
5054;SDS011;13829;48.990;8.346;2023-08-08T05:39:25;4.20;;;1.90;;
5054;SDS011;13829;48.990;8.346;2023-08-08T05:41:53;4.40;;;1.60;;
5054;SDS011;13829;48.990;8.346;2023-08-08T05:44:20;4.70;;;1.93;;
5054;SDS011;13829;48.990;8.346;2023-08-08T05:46:47;3.47;;;1.83;;
5054;SDS011;13829;48.990;8.346;2023-08-08T05:49:14;2.77;;;1.63;;
5054;SDS011;13829;48.990;8.346;2023-08-08T05:51:41;6.40;;;2.20;;
5054;SDS011;13829;48.990;8.346;2023-08-08T05:54:08;3.33;;;2.27;;
5054;SDS011;13829;48.990;8.346;2023-08-08T05:56:37;7.63;;;2.67;;
5054;SDS011;13829;48.990;8.346;2023-08-08T05:59:05;1.77;;;1.63;;
5054;SDS011;13829;48.990;8.346;2023-08-08T06:01:32;3.00;;;1.77;;
5054;SDS011;13829;48.990;8.346;2023-08-08T06:04:00;4.20;;;2.17;;
5054;SDS011;13829;48.990;8.346;2023-08-08T06:06:28;2.70;;;1.77;;
5054;SDS011;13829;48.990;8.346;2023-08-08T06:08:55;3.67;;;1.90;;
5054;SDS011;13829;48.990;8.346;2023-08-08T06:11:22;4.70;;;1.90;;
5054;SDS011;13829;48.990;8.346;2023-08-08T06:13:49;3.70;;;2.03;;
5054;SDS011;13829;48.990;8.346;2023-08-08T06:16:17;3.87;;;2.00;;
5054;SDS011;13829;48.990;8.346;2023-08-08T06:18:45;2.90;;;2.13;;
5054;SDS011;13829;48.990;8.346;2023-08-08T06:21:12;3.53;;;1.70;;
5054;SDS011;13829;48.990;8.346;2023-08-08T06:23:39;3.10;;;1.83;;
5054;SDS011;13829;48.990;8.346;2023-08-08T06:26:06;2.53;;;1.83;;
5054;SDS011;13829;48.990;8.346;2023-08-08T06:28:33;3.87;;;2.03;;
5054;SDS011;13829;48.990;8.346;2023-08-08T06:31:00;6.20;;;2.10;;
5054;SDS011;13829;48.990;8.346;2023-08-08T06:33:29;3.53;;;1.80;;
5054;SDS011;13829;48.990;8.346;2023-08-08T06:35:56;3.37;;;1.90;;
5054;SDS011;13829;48.990;8.346;2023-08-08T06:38:23;4.07;;;2.00;;
5054;SDS011;13829;48.990;8.346;2023-08-08T06:40:50;4.10;;;2.00;;
5054;SDS011;13829;48.990;8.346;2023-08-08T06:43:17;3.27;;;2.03;;
5054;SDS011;13829;48.990;8.346;2023-08-08T06:45:44;3.93;;;1.93;;
5054;SDS011;13829;48.990;8.346;2023-08-08T06:48:11;2.20;;;1.93;;
5054;SDS011;13829;48.990;8.346;2023-08-08T06:50:39;4.83;;;1.80;;
5054;SDS011;13829;48.990;8.346;2023-08-08T06:53:06;4.07;;;1.80;;
5054;SDS011;13829;48.990;8.346;2023-08-08T06:55:33;2.63;;;1.70;;
5054;SDS011;13829;48.990;8.346;2023-08-08T06:58:00;4.13;;;1.90;;
5054;SDS011;13829;48.990;8.346;2023-08-08T07:00:26;2.92;;;1.73;;
5054;SDS011;13829;48.990;8.346;2023-08-08T07:02:54;2.70;;;1.33;;
5054;SDS011;13829;48.990;8.346;2023-08-08T07:05:21;3.45;;;1.70;;
5054;SDS011;13829;48.990;8.346;2023-08-08T07:07:50;4.47;;;1.45;;
5054;SDS011;13829;48.990;8.346;2023-08-08T07:10:17;2.58;;;1.48;;
5054;SDS011;13829;48.990;8.346;2023-08-08T07:12:45;2.65;;;1.25;;
5054;SDS011;13829;48.990;8.346;2023-08-08T07:15:12;5.10;;;1.65;;
5054;SDS011;13829;48.990;8.346;2023-08-08T07:17:39;3.17;;;1.80;;
5054;SDS011;13829;48.990;8.346;2023-08-08T07:20:07;1.52;;;1.05;;
5054;SDS011;13829;48.990;8.346;2023-08-08T07:22:38;2.15;;;1.23;;
5054;SDS011;13829;48.990;8.346;2023-08-08T07:25:07;2.92;;;1.48;;
5054;SDS011;13829;48.990;8.346;2023-08-08T07:27:36;2.28;;;1.38;;
5054;SDS011;13829;48.990;8.346;2023-08-08T07:30:04;1.63;;;1.23;;
5054;SDS011;13829;48.990;8.346;2023-08-08T07:32:33;3.67;;;1.55;;
5054;SDS011;13829;48.990;8.346;2023-08-08T07:35:00;2.83;;;1.60;;
5054;SDS011;13829;48.990;8.346;2023-08-08T07:37:30;2.90;;;1.25;;
5054;SDS011;13829;48.990;8.346;2023-08-08T07:39:58;2.67;;;1.30;;
5054;SDS011;13829;48.990;8.346;2023-08-08T07:42:26;2.13;;;1.48;;
5054;SDS011;13829;48.990;8.346;2023-08-08T07:44:53;1.98;;;1.23;;
5054;SDS011;13829;48.990;8.346;2023-08-08T07:47:20;1.75;;;1.60;;
5054;SDS011;13829;48.990;8.346;2023-08-08T07:49:47;2.90;;;1.58;;
5054;SDS011;13829;48.990;8.346;2023-08-08T07:52:14;2.40;;;1.35;;
5054;SDS011;13829;48.990;8.346;2023-08-08T07:54:41;4.10;;;1.60;;
5054;SDS011;13829;48.990;8.346;2023-08-08T07:57:08;2.28;;;1.10;;
5054;SDS011;13829;48.990;8.346;2023-08-08T07:59:37;5.60;;;1.63;;
5054;SDS011;13829;48.990;8.346;2023-08-08T08:02:04;4.18;;;1.65;;
5054;SDS011;13829;48.990;8.346;2023-08-08T08:04:32;3.13;;;1.33;;
5054;SDS011;13829;48.990;8.346;2023-08-08T08:06:59;2.17;;;1.40;;
5054;SDS011;13829;48.990;8.346;2023-08-08T08:09:27;1.95;;;1.50;;
5054;SDS011;13829;48.990;8.346;2023-08-08T08:11:54;1.63;;;1.23;;
5054;SDS011;13829;48.990;8.346;2023-08-08T08:14:21;1.90;;;1.25;;
5054;SDS011;13829;48.990;8.346;2023-08-08T08:16:50;3.35;;;1.73;;
5054;SDS011;13829;48.990;8.346;2023-08-08T08:19:17;3.38;;;1.60;;
5054;SDS011;13829;48.990;8.346;2023-08-08T08:21:45;2.55;;;1.10;;
5054;SDS011;13829;48.990;8.346;2023-08-08T08:24:12;3.78;;;1.58;;
5054;SDS011;13829;48.990;8.346;2023-08-08T08:26:39;3.88;;;1.50;;
5054;SDS011;13829;48.990;8.346;2023-08-08T08:29:06;2.95;;;1.60;;
5054;SDS011;13829;48.990;8.346;2023-08-08T08:31:33;2.55;;;1.58;;
5054;SDS011;13829;48.990;8.346;2023-08-08T08:34:03;3.13;;;1.48;;
5054;SDS011;13829;48.990;8.346;2023-08-08T08:36:30;4.43;;;1.42;;
5054;SDS011;13829;48.990;8.346;2023-08-08T08:38:57;2.60;;;1.40;;
5054;SDS011;13829;48.990;8.346;2023-08-08T08:41:25;3.20;;;1.58;;
5054;SDS011;13829;48.990;8.346;2023-08-08T08:43:54;3.78;;;1.40;;
5054;SDS011;13829;48.990;8.346;2023-08-08T08:46:21;3.05;;;1.67;;
5054;SDS011;13829;48.990;8.346;2023-08-08T08:48:52;2.70;;;1.85;;
5054;SDS011;13829;48.990;8.346;2023-08-08T08:51:22;4.95;;;1.58;;
5054;SDS011;13829;48.990;8.346;2023-08-08T08:53:50;2.58;;;1.20;;
5054;SDS011;13829;48.990;8.346;2023-08-08T08:56:17;4.22;;;1.77;;
5054;SDS011;13829;48.990;8.346;2023-08-08T08:58:45;1.73;;;1.42;;
5054;SDS011;13829;48.990;8.346;2023-08-08T09:01:13;3.08;;;1.40;;
5054;SDS011;13829;48.990;8.346;2023-08-08T09:03:43;3.28;;;1.52;;
5054;SDS011;13829;48.990;8.346;2023-08-08T09:06:11;3.15;;;1.48;;
5054;SDS011;13829;48.990;8.346;2023-08-08T09:08:42;2.95;;;1.58;;
5054;SDS011;13829;48.990;8.346;2023-08-08T09:11:10;2.35;;;1.52;;
5054;SDS011;13829;48.990;8.346;2023-08-08T09:13:37;2.40;;;1.55;;
5054;SDS011;13829;48.990;8.346;2023-08-08T09:16:05;2.85;;;1.50;;
5054;SDS011;13829;48.990;8.346;2023-08-08T09:18:33;2.22;;;1.48;;
5054;SDS011;13829;48.990;8.346;2023-08-08T09:21:03;2.10;;;1.58;;
5054;SDS011;13829;48.990;8.346;2023-08-08T09:23:30;2.65;;;1.40;;
5054;SDS011;13829;48.990;8.346;2023-08-08T09:25:59;2.28;;;1.42;;
5054;SDS011;13829;48.990;8.346;2023-08-08T09:28:25;4.78;;;2.03;;
5054;SDS011;13829;48.990;8.346;2023-08-08T09:30:53;4.20;;;1.50;;
5054;SDS011;13829;48.990;8.346;2023-08-08T09:33:20;1.50;;;1.35;;
5054;SDS011;13829;48.990;8.346;2023-08-08T09:35:47;1.55;;;1.27;;
5054;SDS011;13829;48.990;8.346;2023-08-08T09:38:14;1.30;;;1.13;;
5054;SDS011;13829;48.990;8.346;2023-08-08T09:40:41;3.42;;;1.80;;
5054;SDS011;13829;48.990;8.346;2023-08-08T09:43:11;2.83;;;1.60;;
5054;SDS011;13829;48.990;8.346;2023-08-08T09:45:38;3.53;;;1.77;;
5054;SDS011;13829;48.990;8.346;2023-08-08T09:48:07;5.55;;;1.80;;
5054;SDS011;13829;48.990;8.346;2023-08-08T09:50:34;4.15;;;1.60;;
5054;SDS011;13829;48.990;8.346;2023-08-08T09:53:02;3.20;;;1.70;;
5054;SDS011;13829;48.990;8.346;2023-08-08T09:55:30;2.95;;;1.70;;
5054;SDS011;13829;48.990;8.346;2023-08-08T09:58:00;2.40;;;1.40;;
5054;SDS011;13829;48.990;8.346;2023-08-08T10:00:30;2.17;;;1.60;;
5054;SDS011;13829;48.990;8.346;2023-08-08T10:02:59;2.17;;;1.50;;
5054;SDS011;13829;48.990;8.346;2023-08-08T10:05:27;2.65;;;1.48;;
5054;SDS011;13829;48.990;8.346;2023-08-08T10:07:54;2.92;;;1.40;;
5054;SDS011;13829;48.990;8.346;2023-08-08T10:10:22;2.22;;;1.67;;
5054;SDS011;13829;48.990;8.346;2023-08-08T10:12:50;1.85;;;1.48;;
5054;SDS011;13829;48.990;8.346;2023-08-08T10:15:18;4.10;;;1.55;;
5054;SDS011;13829;48.990;8.346;2023-08-08T10:17:46;5.47;;;1.70;;
5054;SDS011;13829;48.990;8.346;2023-08-08T10:20:21;2.38;;;1.52;;
5054;SDS011;13829;48.990;8.346;2023-08-08T10:22:48;3.10;;;1.60;;
5054;SDS011;13829;48.990;8.346;2023-08-08T10:25:22;4.40;;;1.20;;
5054;SDS011;13829;48.990;8.346;2023-08-08T10:28:01;3.78;;;1.40;;
5054;SDS011;13829;48.990;8.346;2023-08-08T10:30:41;5.03;;;1.30;;
5054;SDS011;13829;48.990;8.346;2023-08-08T10:33:16;2.15;;;1.13;;
5054;SDS011;13829;48.990;8.346;2023-08-08T10:35:56;4.45;;;1.50;;
5054;SDS011;13829;48.990;8.346;2023-08-08T10:38:26;2.30;;;1.27;;
5054;SDS011;13829;48.990;8.346;2023-08-08T10:41:08;2.97;;;1.20;;
5054;SDS011;13829;48.990;8.346;2023-08-08T10:43:37;2.33;;;1.30;;
5054;SDS011;13829;48.990;8.346;2023-08-08T10:46:06;2.28;;;1.00;;
5054;SDS011;13829;48.990;8.346;2023-08-08T10:48:34;1.38;;;1.05;;
5054;SDS011;13829;48.990;8.346;2023-08-08T10:51:01;2.55;;;1.10;;
5054;SDS011;13829;48.990;8.346;2023-08-08T10:53:32;3.92;;;1.20;;
5054;SDS011;13829;48.990;8.346;2023-08-08T10:55:59;3.05;;;1.13;;
5054;SDS011;13829;48.990;8.346;2023-08-08T10:58:35;3.05;;;1.10;;
5054;SDS011;13829;48.990;8.346;2023-08-08T11:01:03;2.50;;;1.00;;
5054;SDS011;13829;48.990;8.346;2023-08-08T11:03:35;2.13;;;1.30;;
5054;SDS011;13829;48.990;8.346;2023-08-08T11:06:05;1.70;;;1.05;;
5054;SDS011;13829;48.990;8.346;2023-08-08T11:08:34;1.20;;;1.00;;
5054;SDS011;13829;48.990;8.346;2023-08-08T11:11:03;1.23;;;0.90;;
5054;SDS011;13829;48.990;8.346;2023-08-08T11:13:31;3.22;;;1.40;;
5054;SDS011;13829;48.990;8.346;2023-08-08T11:15:58;1.98;;;0.90;;
5054;SDS011;13829;48.990;8.346;2023-08-08T11:18:26;2.13;;;1.00;;
5054;SDS011;13829;48.990;8.346;2023-08-08T11:20:55;2.83;;;1.38;;
5054;SDS011;13829;48.990;8.346;2023-08-08T11:23:22;2.70;;;1.05;;
5054;SDS011;13829;48.990;8.346;2023-08-08T11:25:49;5.57;;;1.30;;
5054;SDS011;13829;48.990;8.346;2023-08-08T11:28:16;3.15;;;1.25;;
5054;SDS011;13829;48.990;8.346;2023-08-08T11:30:44;2.67;;;1.17;;
5054;SDS011;13829;48.990;8.346;2023-08-08T11:33:13;1.38;;;0.85;;
5054;SDS011;13829;48.990;8.346;2023-08-08T11:35:43;2.67;;;0.88;;
5054;SDS011;13829;48.990;8.346;2023-08-08T11:38:15;2.95;;;1.20;;
5054;SDS011;13829;48.990;8.346;2023-08-08T11:40:43;1.63;;;1.17;;
5054;SDS011;13829;48.990;8.346;2023-08-08T11:43:11;2.33;;;1.23;;
5054;SDS011;13829;48.990;8.346;2023-08-08T11:45:39;2.03;;;1.40;;
5054;SDS011;13829;48.990;8.346;2023-08-08T11:48:07;7.63;;;1.75;;
5054;SDS011;13829;48.990;8.346;2023-08-08T11:50:36;6.95;;;1.60;;
5054;SDS011;13829;48.990;8.346;2023-08-08T11:53:06;2.28;;;0.95;;
5054;SDS011;13829;48.990;8.346;2023-08-08T11:55:35;2.20;;;1.50;;
5054;SDS011;13829;48.990;8.346;2023-08-08T11:58:03;4.07;;;1.15;;
5054;SDS011;13829;48.990;8.346;2023-08-08T12:00:30;2.83;;;1.20;;
5054;SDS011;13829;48.990;8.346;2023-08-08T12:03:00;1.77;;;1.23;;
5054;SDS011;13829;48.990;8.346;2023-08-08T12:05:29;3.33;;;1.55;;
5054;SDS011;13829;48.990;8.346;2023-08-08T12:08:04;2.45;;;1.40;;
5054;SDS011;13829;48.990;8.346;2023-08-08T12:10:34;2.67;;;1.25;;
5054;SDS011;13829;48.990;8.346;2023-08-08T12:13:01;2.65;;;1.00;;
5054;SDS011;13829;48.990;8.346;2023-08-08T12:15:28;2.08;;;1.20;;
5054;SDS011;13829;48.990;8.346;2023-08-08T12:18:00;2.83;;;1.23;;
5054;SDS011;13829;48.990;8.346;2023-08-08T12:20:28;1.52;;;1.20;;
5054;SDS011;13829;48.990;8.346;2023-08-08T12:22:56;2.45;;;1.13;;
5054;SDS011;13829;48.990;8.346;2023-08-08T12:25:23;3.85;;;1.52;;
5054;SDS011;13829;48.990;8.346;2023-08-08T12:27:51;1.88;;;1.38;;
5054;SDS011;13829;48.990;8.346;2023-08-08T12:30:18;2.67;;;1.10;;
5054;SDS011;13829;48.990;8.346;2023-08-08T12:32:45;1.75;;;1.30;;
5054;SDS011;13829;48.990;8.346;2023-08-08T12:35:12;2.33;;;1.00;;
5054;SDS011;13829;48.990;8.346;2023-08-08T12:37:41;2.00;;;1.25;;
5054;SDS011;13829;48.990;8.346;2023-08-08T12:40:08;2.92;;;1.25;;
5054;SDS011;13829;48.990;8.346;2023-08-08T12:42:36;1.15;;;1.05;;
5054;SDS011;13829;48.990;8.346;2023-08-08T12:45:05;4.30;;;1.52;;
5054;SDS011;13829;48.990;8.346;2023-08-08T12:47:33;3.78;;;1.33;;
5054;SDS011;13829;48.990;8.346;2023-08-08T12:50:01;2.42;;;1.20;;
5054;SDS011;13829;48.990;8.346;2023-08-08T12:52:29;5.13;;;1.42;;
5054;SDS011;13829;48.990;8.346;2023-08-08T12:54:56;2.70;;;1.40;;
5054;SDS011;13829;48.990;8.346;2023-08-08T12:57:23;2.88;;;1.23;;
5054;SDS011;13829;48.990;8.346;2023-08-08T12:59:50;3.85;;;1.33;;
5054;SDS011;13829;48.990;8.346;2023-08-08T13:02:18;2.05;;;0.80;;
5054;SDS011;13829;48.990;8.346;2023-08-08T13:04:45;2.38;;;1.40;;
5054;SDS011;13829;48.990;8.346;2023-08-08T13:07:12;1.65;;;1.05;;
5054;SDS011;13829;48.990;8.346;2023-08-08T13:09:39;2.90;;;1.27;;
5054;SDS011;13829;48.990;8.346;2023-08-08T13:12:06;1.83;;;1.02;;
5054;SDS011;13829;48.990;8.346;2023-08-08T13:14:33;1.20;;;1.00;;
5054;SDS011;13829;48.990;8.346;2023-08-08T13:17:01;4.00;;;1.20;;
5054;SDS011;13829;48.990;8.346;2023-08-08T13:19:29;3.22;;;1.17;;
5054;SDS011;13829;48.990;8.346;2023-08-08T13:21:56;1.75;;;1.20;;
5054;SDS011;13829;48.990;8.346;2023-08-08T13:24:23;1.50;;;1.15;;
5054;SDS011;13829;48.990;8.346;2023-08-08T13:26:50;1.30;;;1.00;;
5054;SDS011;13829;48.990;8.346;2023-08-08T13:29:17;2.97;;;1.15;;
5054;SDS011;13829;48.990;8.346;2023-08-08T13:31:44;2.00;;;1.20;;
5054;SDS011;13829;48.990;8.346;2023-08-08T13:34:11;2.08;;;1.10;;
5054;SDS011;13829;48.990;8.346;2023-08-08T13:36:39;2.17;;;1.30;;
5054;SDS011;13829;48.990;8.346;2023-08-08T13:39:07;3.47;;;1.45;;
5054;SDS011;13829;48.990;8.346;2023-08-08T13:41:35;1.58;;;0.93;;
5054;SDS011;13829;48.990;8.346;2023-08-08T13:44:02;4.55;;;1.38;;
5054;SDS011;13829;48.990;8.346;2023-08-08T13:46:30;2.35;;;1.27;;
5054;SDS011;13829;48.990;8.346;2023-08-08T13:48:56;2.40;;;1.13;;
5054;SDS011;13829;48.990;8.346;2023-08-08T13:51:23;1.67;;;1.10;;
5054;SDS011;13829;48.990;8.346;2023-08-08T13:53:52;2.97;;;1.10;;
5054;SDS011;13829;48.990;8.346;2023-08-08T13:56:19;4.30;;;1.05;;
5054;SDS011;13829;48.990;8.346;2023-08-08T13:58:46;2.40;;;1.02;;
5054;SDS011;13829;48.990;8.346;2023-08-08T14:01:13;1.42;;;1.20;;
5054;SDS011;13829;48.990;8.346;2023-08-08T14:03:40;1.98;;;1.02;;
5054;SDS011;13829;48.990;8.346;2023-08-08T14:06:07;2.35;;;1.10;;
5054;SDS011;13829;48.990;8.346;2023-08-08T14:08:35;2.17;;;1.15;;
5054;SDS011;13829;48.990;8.346;2023-08-08T14:11:03;0.85;;;0.77;;
5054;SDS011;13829;48.990;8.346;2023-08-08T14:13:30;1.38;;;0.98;;
5054;SDS011;13829;48.990;8.346;2023-08-08T14:15:59;3.70;;;1.45;;
5054;SDS011;13829;48.990;8.346;2023-08-08T14:18:26;2.53;;;0.95;;
5054;SDS011;13829;48.990;8.346;2023-08-08T14:20:53;1.40;;;1.10;;
5054;SDS011;13829;48.990;8.346;2023-08-08T14:23:20;2.55;;;1.15;;
5054;SDS011;13829;48.990;8.346;2023-08-08T14:25:47;5.07;;;1.60;;
5054;SDS011;13829;48.990;8.346;2023-08-08T14:28:16;2.55;;;1.08;;
5054;SDS011;13829;48.990;8.346;2023-08-08T14:30:43;1.70;;;1.02;;
5054;SDS011;13829;48.990;8.346;2023-08-08T14:33:12;3.38;;;1.05;;
5054;SDS011;13829;48.990;8.346;2023-08-08T14:35:40;3.92;;;1.05;;
5054;SDS011;13829;48.990;8.346;2023-08-08T14:38:07;1.80;;;1.10;;
5054;SDS011;13829;48.990;8.346;2023-08-08T14:40:34;1.17;;;0.75;;
5054;SDS011;13829;48.990;8.346;2023-08-08T14:43:01;1.55;;;0.80;;
5054;SDS011;13829;48.990;8.346;2023-08-08T14:45:36;3.50;;;0.90;;
5054;SDS011;13829;48.990;8.346;2023-08-08T14:48:03;2.28;;;1.00;;
5054;SDS011;13829;48.990;8.346;2023-08-08T14:50:31;3.65;;;1.20;;
5054;SDS011;13829;48.990;8.346;2023-08-08T14:52:58;2.25;;;1.05;;
5054;SDS011;13829;48.990;8.346;2023-08-08T14:55:25;1.27;;;1.05;;
5054;SDS011;13829;48.990;8.346;2023-08-08T14:57:52;1.80;;;1.10;;
5054;SDS011;13829;48.990;8.346;2023-08-08T15:00:19;1.50;;;1.13;;
5054;SDS011;13829;48.990;8.346;2023-08-08T15:02:48;2.58;;;1.00;;
5054;SDS011;13829;48.990;8.346;2023-08-08T15:05:15;2.55;;;1.02;;